Time;durP1;ratioP1;P1;durP2;ratioP2;P2;SDS_P1;SDS_P2;PMS_P1;PMS_P2;Temp;Humidity;BMP_temperature;BMP_pressure;BME280_temperature;BME280_humidity;BME280_pressure;Samples;Min_cycle;Max_cycle;Signal;HPM_P1;HPM_P2
2022/08/11 00:00:35;;;;;;;1.80;1.50;;;;;;;;;;5055512;28;20021;-47
2022/08/11 00:03:06;;;;;;;1.55;1.20;;;;;;;;;;5055398;28;20374;-42
2022/08/11 00:05:42;;;;;;;1.40;1.30;;;;;;;;;;5055073;28;20465;-46
2022/08/11 00:08:09;;;;;;;1.42;1.23;;;;;;;;;;5055012;28;20029;-44
2022/08/11 00:10:37;;;;;;;3.92;1.42;;;;;;;;;;5054958;28;20056;-44
2022/08/11 00:13:06;;;;;;;2.03;1.40;;;;;;;;;;5055221;28;20029;-43
2022/08/11 00:15:41;;;;;;;3.10;1.48;;;;;;;;;;5055257;28;20033;-45
2022/08/11 00:18:08;;;;;;;2.63;1.27;;;;;;;;;;5055136;28;20051;-45
2022/08/11 00:20:38;;;;;;;4.55;1.58;;;;;;;;;;5054999;28;20129;-48
2022/08/11 00:23:13;;;;;;;1.77;1.30;;;;;;;;;;5055026;28;20405;-45
2022/08/11 00:25:44;;;;;;;1.80;1.40;;;;;;;;;;5054755;28;20021;-46
2022/08/11 00:28:42;;;;;;;2.10;1.30;;;;;;;;;;5055007;28;20433;-44
2022/08/11 00:31:18;;;;;;;2.78;1.45;;;;;;;;;;4992049;28;20449;-41
2022/08/11 00:33:44;;;;;;;2.33;1.27;;;;;;;;;;5014915;28;20101;-42
2022/08/11 00:36:15;;;;;;;1.80;1.25;;;;;;;;;;5015043;28;20029;-46
2022/08/11 00:38:42;;;;;;;2.85;1.17;;;;;;;;;;5015185;28;20030;-42
2022/08/11 00:41:49;;;;;;;7.53;1.73;;;;;;;;;;5014953;28;20088;-42
2022/08/11 00:44:32;;;;;;;4.43;1.45;;;;;;;;;;5013720;28;20066;-41
2022/08/11 00:47:22;;;;;;;2.45;1.58;;;;;;;;;;5014721;28;20029;-45
2022/08/11 00:50:11;;;;;;;3.90;1.25;;;;;;;;;;5014906;28;20105;-42
2022/08/11 00:53:02;;;;;;;2.00;1.30;;;;;;;;;;5014526;28;20048;-46
2022/08/11 00:55:45;;;;;;;;;;;;;;;;;;5015181;28;20030;-43
2022/08/11 00:58:46;;;;;;;1.92;1.15;;;;;;;;;;5014401;28;20007;-45
2022/08/11 01:01:14;;;;;;;4.28;1.40;;;;;;;;;;5014436;28;20207;-45
2022/08/11 01:04:14;;;;;;;1.42;1.20;;;;;;;;;;5014577;28;20099;-45
2022/08/11 01:06:51;;;;;;;5.05;1.50;;;;;;;;;;5013174;28;20032;-43
2022/08/11 01:09:47;;;;;;;4.63;2.17;;;;;;;;;;5014500;28;20040;-42
2022/08/11 01:12:29;;;;;;;2.25;1.33;;;;;;;;;;5014135;28;20018;-42
2022/08/11 01:15:23;;;;;;;1.98;1.77;;;;;;;;;;5014259;28;20041;-41
2022/08/11 01:18:10;;;;;;;2.72;1.30;;;;;;;;;;5014185;28;20405;-42
2022/08/11 01:21:13;;;;;;;1.80;1.30;;;;;;;;;;5014266;28;20030;-42
2022/08/11 01:24:06;;;;;;;3.67;1.50;;;;;;;;;;5013841;28;20064;-43
2022/08/11 01:27:06;;;;;;;8.55;1.50;;;;;;;;;;5014199;28;20052;-43
2022/08/11 01:29:50;;;;;;;2.10;1.30;;;;;;;;;;5015487;28;20133;-47
2022/08/11 01:32:28;;;;;;;4.30;1.45;;;;;;;;;;5053530;28;20037;-43
2022/08/11 01:35:12;;;;;;;1.65;1.38;;;;;;;;;;5053414;28;20025;-42
2022/08/11 01:37:46;;;;;;;3.15;1.40;;;;;;;;;;5053319;28;20040;-42
2022/08/11 01:40:39;;;;;;;1.52;1.33;;;;;;;;;;5053587;28;20499;-41
2022/08/11 01:46:28;;;;;;;2.83;1.50;;;;;;;;;;5053344;28;20094;-41
2022/08/11 01:49:08;;;;;;;7.10;1.67;;;;;;;;;;5053144;28;20013;-42
2022/08/11 01:51:50;;;;;;;3.55;1.40;;;;;;;;;;5053476;28;20084;-43
2022/08/11 01:54:43;;;;;;;2.78;1.42;;;;;;;;;;5053365;28;20495;-42
2022/08/11 01:57:26;;;;;;;1.90;1.30;;;;;;;;;;5053275;28;20052;-48
2022/08/11 02:00:19;;;;;;;3.20;1.50;;;;;;;;;;5053002;28;20029;-44
2022/08/11 02:03:07;;;;;;;2.63;1.48;;;;;;;;;;5052542;28;20044;-43
2022/08/11 02:05:46;;;;;;;1.55;1.45;;;;;;;;;;5053189;28;20403;-42
2022/08/11 02:08:37;;;;;;;3.35;1.63;;;;;;;;;;5052837;28;20025;-43
2022/08/11 02:11:30;;;;;;;5.97;1.55;;;;;;;;;;5041899;28;20120;-44
2022/08/11 02:14:14;;;;;;;3.20;1.30;;;;;;;;;;5052807;28;20473;-44
2022/08/11 02:17:22;;;;;;;2.80;1.30;;;;;;;;;;5052355;28;20064;-45
2022/08/11 02:25:57;;;;;;;2.65;1.48;;;;;;;;;;5052930;28;20606;-43
2022/08/11 02:28:44;;;;;;;1.83;1.40;;;;;;;;;;5052776;28;20032;-44
2022/08/11 02:34:30;;;;;;;5.30;1.45;;;;;;;;;;5052541;28;20036;-44
2022/08/11 02:37:16;;;;;;;1.95;1.45;;;;;;;;;;5052602;28;20028;-44
2022/08/11 02:40:02;;;;;;;3.92;1.58;;;;;;;;;;5052446;28;20468;-43
2022/08/11 02:42:45;;;;;;;2.38;1.35;;;;;;;;;;5052447;28;20025;-44
2022/08/11 02:45:10;;;;;;;3.33;1.40;;;;;;;;;;5052440;28;20024;-44
2022/08/11 02:50:49;;;;;;;3.33;1.25;;;;;;;;;;5052319;28;20148;-44
2022/08/11 02:53:29;;;;;;;3.58;1.50;;;;;;;;;;5052233;28;20025;-44
2022/08/11 02:56:07;;;;;;;1.58;1.40;;;;;;;;;;5052047;28;20017;-45
2022/08/11 02:58:34;;;;;;;4.35;1.33;;;;;;;;;;5052207;28;20091;-45
2022/08/11 03:01:11;;;;;;;4.22;1.40;;;;;;;;;;5052082;28;20033;-46
2022/08/11 03:03:50;;;;;;;5.47;1.20;;;;;;;;;;5052411;28;20032;-45
2022/08/11 03:06:48;;;;;;;2.47;1.20;;;;;;;;;;5052028;28;20033;-44
2022/08/11 03:09:40;;;;;;;2.42;1.60;;;;;;;;;;5052041;28;20075;-46
2022/08/11 03:19:00;;;;;;;3.25;1.55;;;;;;;;;;5052371;28;20056;-45
2022/08/11 03:22:02;;;;;;;1.73;1.48;;;;;;;;;;5034257;28;20029;-44
2022/08/11 03:24:46;;;;;;;1.73;1.63;;;;;;;;;;5052349;28;20385;-45
2022/08/11 03:27:35;;;;;;;2.03;1.70;;;;;;;;;;5052055;28;20021;-44
2022/08/11 03:30:10;;;;;;;1.98;1.60;;;;;;;;;;5054565;28;20182;-42
2022/08/11 03:36:15;;;;;;;2.00;1.35;;;;;;;;;;5055691;28;20436;-43
2022/08/11 03:39:02;;;;;;;2.53;1.50;;;;;;;;;;5055046;28;20098;-43
2022/08/11 03:41:43;;;;;;;1.42;1.30;;;;;;;;;;5055636;28;20025;-45
2022/08/11 03:44:34;;;;;;;1.52;1.30;;;;;;;;;;5055870;28;20021;-46
2022/08/11 03:47:15;;;;;;;2.15;1.55;;;;;;;;;;5055840;28;20025;-48
2022/08/11 03:50:01;;;;;;;1.48;1.38;;;;;;;;;;5055599;28;20021;-47
2022/08/11 03:52:38;;;;;;;4.90;1.42;;;;;;;;;;5055424;28;20029;-46
2022/08/11 03:55:14;;;;;;;3.67;1.70;;;;;;;;;;5055427;28;20028;-45
2022/08/11 03:58:19;;;;;;;2.10;1.63;;;;;;;;;;5055294;28;20480;-45
2022/08/11 04:01:10;;;;;;;2.17;1.60;;;;;;;;;;5055348;28;20407;-44
2022/08/11 04:04:06;;;;;;;3.13;1.67;;;;;;;;;;5055260;28;20380;-45
2022/08/11 04:06:47;;;;;;;5.30;1.80;;;;;;;;;;5055444;28;20037;-46
2022/08/11 04:09:24;;;;;;;1.85;1.58;;;;;;;;;;5055249;28;20052;-45
2022/08/11 04:12:10;;;;;;;6.97;1.50;;;;;;;;;;5055383;28;20045;-44
2022/08/11 04:18:01;;;;;;;5.70;1.70;;;;;;;;;;5054907;28;20141;-51
2022/08/11 04:20:35;;;;;;;3.50;1.40;;;;;;;;;;5055116;28;20029;-47
2022/08/11 04:23:23;;;;;;;2.80;1.60;;;;;;;;;;5054815;28;20021;-50
2022/08/11 04:26:10;;;;;;;4.25;1.45;;;;;;;;;;5054760;28;20024;-46
2022/08/11 04:29:10;;;;;;;1.55;1.45;;;;;;;;;;5054737;28;20438;-44
2022/08/11 04:31:40;;;;;;;5.50;1.52;;;;;;;;;;5028637;28;20041;-44
2022/08/11 04:34:17;;;;;;;3.53;1.40;;;;;;;;;;5054543;28;20457;-47
2022/08/11 04:39:48;;;;;;;1.60;1.50;;;;;;;;;;5054367;28;20055;-43
2022/08/11 04:45:21;;;;;;;;;;;;;;;;;;5054932;28;20036;-41
2022/08/11 05:03:48;;;;;;;2.65;1.50;;;;;;;;;;5054452;28;20395;-47
2022/08/11 05:06:31;;;;;;;4.30;1.55;;;;;;;;;;5054073;28;20025;-48
2022/08/11 05:09:33;;;;;;;4.05;1.40;;;;;;;;;;5054098;28;20028;-47
2022/08/11 05:11:58;;;;;;;2.75;1.50;;;;;;;;;;5050798;28;20086;-47
2022/08/11 05:37:11;;;;;;;4.65;1.85;;;;;;;;;;5053186;28;20078;-46
2022/08/11 05:56:53;;;;;;;1.75;1.40;;;;;;;;;;5053226;28;20495;-48
2022/08/11 05:59:20;;;;;;;9.45;1.73;;;;;;;;;;5053292;28;20051;-45
2022/08/11 06:01:46;;;;;;;3.22;1.30;;;;;;;;;;5052948;28;20083;-48
2022/08/11 06:04:19;;;;;;;4.57;1.30;;;;;;;;;;5052964;28;20480;-45
2022/08/11 06:07:01;;;;;;;1.73;1.17;;;;;;;;;;5053028;28;20029;-46
2022/08/11 06:09:32;;;;;;;5.30;1.80;;;;;;;;;;5052765;28;20035;-49
2022/08/11 06:12:16;;;;;;;5.65;1.20;;;;;;;;;;5053033;28;20071;-50
2022/08/11 06:14:44;;;;;;;4.95;1.63;;;;;;;;;;5052740;28;20028;-52
2022/08/11 06:17:12;;;;;;;7.85;2.25;;;;;;;;;;5052644;28;20097;-44
2022/08/11 06:19:45;;;;;;;11.02;1.92;;;;;;;;;;5052587;28;20017;-46
2022/08/11 06:22:11;;;;;;;29.48;3.88;;;;;;;;;;5052717;28;20033;-48
2022/08/11 06:24:40;;;;;;;5.15;1.52;;;;;;;;;;5052589;28;20029;-50
2022/08/11 06:27:07;;;;;;;4.57;1.50;;;;;;;;;;5051423;28;20147;-46
2022/08/11 06:29:39;;;;;;;1.20;1.10;;;;;;;;;;5050994;28;20033;-51
2022/08/11 06:32:05;;;;;;;3.25;1.25;;;;;;;;;;5032858;28;20124;-49
2022/08/11 06:34:51;;;;;;;15.65;2.38;;;;;;;;;;5050471;28;20025;-50
2022/08/11 06:37:42;;;;;;;1.50;1.00;;;;;;;;;;5052503;28;20032;-49
2022/08/11 06:40:11;;;;;;;9.73;1.63;;;;;;;;;;5052613;28;20040;-47
2022/08/11 06:42:43;;;;;;;11.07;2.38;;;;;;;;;;5052539;28;20021;-47
2022/08/11 06:45:29;;;;;;;11.00;1.85;;;;;;;;;;5052054;28;20049;-45
2022/08/11 06:47:59;;;;;;;39.85;3.72;;;;;;;;;;5051654;28;20021;-47
2022/08/11 06:53:11;;;;;;;27.70;2.80;;;;;;;;;;5052623;28;20032;-47
2022/08/11 07:01:46;;;;;;;0.68;0.60;;;;;;;;;;5052247;28;20487;-51
2022/08/11 07:04:19;;;;;;;8.18;1.45;;;;;;;;;;5052867;28;20029;-50
2022/08/11 07:15:58;;;;;;;0.60;0.60;;;;;;;;;;5054335;28;20035;-51
2022/08/11 07:29:51;;;;;;;0.70;0.70;;;;;;;;;;5055034;28;20453;-52
2022/08/11 07:32:29;;;;;;;5.30;1.10;;;;;;;;;;5052762;28;20518;-50
2022/08/11 07:35:12;;;;;;;2.00;1.00;;;;;;;;;;5054267;28;20480;-51
2022/08/11 07:37:41;;;;;;;1.17;0.80;;;;;;;;;;5053918;28;20035;-52
2022/08/11 07:40:08;;;;;;;0.90;0.85;;;;;;;;;;5054278;28;20108;-51
2022/08/11 07:42:34;;;;;;;1.25;1.10;;;;;;;;;;5054077;28;20043;-48
2022/08/11 07:53:20;;;;;;;2.58;0.90;;;;;;;;;;5053911;28;20396;-47
2022/08/11 07:55:49;;;;;;;5.88;1.10;;;;;;;;;;5053666;28;20033;-49
2022/08/11 08:17:51;;;;;;;0.90;0.90;;;;;;;;;;5053215;28;20435;-49
2022/08/11 08:20:19;;;;;;;4.38;0.93;;;;;;;;;;5053094;28;20033;-48
2022/08/11 08:22:55;;;;;;;2.20;0.73;;;;;;;;;;5053507;28;20041;-46
2022/08/11 08:25:25;;;;;;;1.75;0.90;;;;;;;;;;5053081;28;20032;-51
2022/08/11 08:27:53;;;;;;;4.63;1.13;;;;;;;;;;5053254;28;20368;-46
2022/08/11 08:33:04;;;;;;;14.85;2.15;;;;;;;;;;5053300;28;20063;-48
2022/08/11 08:35:30;;;;;;;6.07;1.10;;;;;;;;;;5052842;28;20057;-48
2022/08/11 08:37:58;;;;;;;39.10;2.97;;;;;;;;;;5051912;28;20052;-47
2022/08/11 08:40:24;;;;;;;48.15;5.28;;;;;;;;;;5052703;28;20060;-43
2022/08/11 08:42:57;;;;;;;6.95;1.20;;;;;;;;;;5052128;28;20064;-49
2022/08/11 08:45:26;;;;;;;5.05;0.85;;;;;;;;;;5053096;28;20037;-50
2022/08/11 08:48:15;;;;;;;1.67;0.82;;;;;;;;;;5052659;28;20029;-46
2022/08/11 08:53:38;;;;;;;2.83;0.80;;;;;;;;;;5051989;28;20068;-51
2022/08/11 08:56:06;;;;;;;2.53;0.80;;;;;;;;;;5052759;28;20488;-46
2022/08/11 08:58:35;;;;;;;1.00;0.93;;;;;;;;;;5052681;28;20052;-49
2022/08/11 09:01:01;;;;;;;0.60;0.60;;;;;;;;;;5050446;28;20033;-51
2022/08/11 09:03:27;;;;;;;1.98;1.20;;;;;;;;;;5052298;28;20403;-50
2022/08/11 09:05:54;;;;;;;5.53;1.48;;;;;;;;;;5052512;28;20064;-50
2022/08/11 09:08:21;;;;;;;10.77;1.13;;;;;;;;;;5052251;28;20120;-52
2022/08/11 09:11:48;;;;;;;2.42;1.08;;;;;;;;;;5052066;28;20021;-50
2022/08/11 09:13:35;;;;;;;21.88;1.42;;;;;;;;;;5051877;28;20094;-47
2022/08/11 09:16:04;;;;;;;2.35;1.05;;;;;;;;;;5052267;28;20124;-50
2022/08/11 09:18:31;;;;;;;1.80;1.27;;;;;;;;;;5052106;28;20067;-45
2022/08/11 09:20:58;;;;;;;1.20;0.63;;;;;;;;;;5051630;28;20031;-50
2022/08/11 09:28:54;;;;;;;0.70;0.70;;;;;;;;;;5052391;28;20461;-47
2022/08/11 09:31:21;;;;;;;4.05;1.08;;;;;;;;;;5051734;28;20123;-46
2022/08/11 09:33:50;;;;;;;3.42;1.10;;;;;;;;;;5052156;28;20358;-48
2022/08/11 09:41:48;;;;;;;4.03;1.10;;;;;;;;;;5052093;28;20087;-50
2022/08/11 09:46:59;;;;;;;1.30;1.00;;;;;;;;;;5051874;28;20495;-46
2022/08/11 09:49:26;;;;;;;1.65;1.08;;;;;;;;;;5033652;28;20041;-47
2022/08/11 09:51:52;;;;;;;1.13;0.93;;;;;;;;;;5051279;28;20036;-49
2022/08/11 09:54:19;;;;;;;3.65;1.17;;;;;;;;;;5051468;28;20033;-49
2022/08/11 09:59:29;;;;;;;1.48;1.30;;;;;;;;;;5051560;28;20417;-48
2022/08/11 10:02:01;;;;;;;3.55;0.95;;;;;;;;;;5051620;28;20120;-46
2022/08/11 10:04:48;;;;;;;2.08;1.00;;;;;;;;;;5051535;28;20085;-49
2022/08/11 10:07:15;;;;;;;1.05;0.93;;;;;;;;;;5033679;28;20396;-46
2022/08/11 10:09:58;;;;;;;4.03;0.93;;;;;;;;;;5051540;28;20052;-51
2022/08/11 10:12:45;;;;;;;0.80;0.80;;;;;;;;;;5051278;28;20440;-46
2022/08/11 10:15:37;;;;;;;3.10;1.15;;;;;;;;;;5051114;28;20033;-47
2022/08/11 10:18:48;;;;;;;0.65;0.65;;;;;;;;;;5051118;28;20029;-46
2022/08/11 10:21:34;;;;;;;0.80;0.80;;;;;;;;;;5050940;28;20057;-48
2022/08/11 10:26:53;;;;;;;3.05;1.30;;;;;;;;;;5051257;28;20048;-44
2022/08/11 10:35:07;;;;;;;13.60;1.10;;;;;;;;;;5051157;28;20040;-46
2022/08/11 10:37:36;;;;;;;1.33;1.20;;;;;;;;;;5050477;28;20036;-51
2022/08/11 10:40:04;;;;;;;10.50;1.02;;;;;;;;;;5050871;28;20032;-43
2022/08/11 10:48:02;;;;;;;1.65;0.60;;;;;;;;;;5050268;28;20036;-45
2022/08/11 10:58:49;;;;;;;5.35;1.05;;;;;;;;;;5050439;28;20403;-49
2022/08/11 11:01:24;;;;;;;3.90;1.17;;;;;;;;;;5050446;28;20036;-47
2022/08/11 11:03:53;;;;;;;1.52;1.08;;;;;;;;;;5049986;28;20565;-47
2022/08/11 11:06:25;;;;;;;3.13;0.80;;;;;;;;;;5050278;28;20040;-44
2022/08/11 11:09:05;;;;;;;1.00;0.88;;;;;;;;;;5049835;28;20669;-48
2022/08/11 11:19:58;;;;;;;1.90;1.00;;;;;;;;;;5050227;28;20488;-49
2022/08/11 11:22:37;;;;;;;1.17;0.70;;;;;;;;;;5050053;28;20477;-52
2022/08/11 11:25:22;;;;;;;5.30;1.10;;;;;;;;;;5049608;28;20021;-48
2022/08/11 11:28:03;;;;;;;0.95;0.75;;;;;;;;;;5050219;28;20028;-47
2022/08/11 11:30:41;;;;;;;1.02;0.80;;;;;;;;;;5049870;28;20498;-45
2022/08/11 11:33:13;;;;;;;1.52;0.70;;;;;;;;;;5031870;28;20035;-47
2022/08/11 11:36:19;;;;;;;0.77;0.77;;;;;;;;;;5049479;28;20542;-47
2022/08/11 11:38:45;;;;;;;1.02;0.80;;;;;;;;;;5049644;28;20037;-44
2022/08/11 11:41:26;;;;;;;4.43;1.00;;;;;;;;;;5050050;28;20044;-48
2022/08/11 11:43:55;;;;;;;1.27;0.60;;;;;;;;;;5049590;28;20493;-50
2022/08/11 11:46:25;;;;;;;0.60;0.60;;;;;;;;;;5049838;28;20060;-45
2022/08/11 11:48:52;;;;;;;4.22;0.70;;;;;;;;;;5050103;28;20115;-48
2022/08/11 11:51:19;;;;;;;4.05;0.60;;;;;;;;;;5052485;28;20120;-51
2022/08/11 11:53:46;;;;;;;2.10;0.80;;;;;;;;;;5053397;28;20024;-48
2022/08/11 11:56:14;;;;;;;0.50;0.50;;;;;;;;;;5053391;28;20389;-52
2022/08/11 12:01:25;;;;;;;1.90;0.60;;;;;;;;;;5053718;28;20436;-49
2022/08/11 12:03:53;;;;;;;2.53;0.50;;;;;;;;;;5052945;28;20025;-48
2022/08/11 12:06:21;;;;;;;1.33;0.60;;;;;;;;;;5053206;28;20028;-47
2022/08/11 12:08:49;;;;;;;0.60;0.60;;;;;;;;;;5035168;28;20033;-47
2022/08/11 12:14:03;;;;;;;4.82;0.90;;;;;;;;;;5052922;28;20055;-45
2022/08/11 12:16:29;;;;;;;0.60;0.38;;;;;;;;;;5053036;28;20060;-47
2022/08/11 12:18:59;;;;;;;0.50;0.50;;;;;;;;;;5052926;28;20392;-46
2022/08/11 12:21:29;;;;;;;0.60;0.60;;;;;;;;;;5053377;28;20442;-48
2022/08/11 12:29:25;;;;;;;1.35;0.73;;;;;;;;;;5053121;28;20477;-42
2022/08/11 12:31:53;;;;;;;0.73;0.73;;;;;;;;;;5050483;28;20057;-42
2022/08/11 12:34:19;;;;;;;0.73;0.68;;;;;;;;;;5051301;28;20758;-41
2022/08/11 12:36:54;;;;;;;1.58;0.77;;;;;;;;;;5052584;28;20021;-41
2022/08/11 12:53:22;;;;;;;2.88;0.70;;;;;;;;;;5052628;28;20150;-45
2022/08/11 12:58:39;;;;;;;0.85;0.70;;;;;;;;;;5051572;28;20090;-47
2022/08/11 13:06:33;;;;;;;1.90;0.80;;;;;;;;;;5051883;28;20167;-44
2022/08/11 13:08:58;;;;;;;0.77;0.77;;;;;;;;;;5052335;28;20032;-42
2022/08/11 13:14:11;;;;;;;4.18;1.10;;;;;;;;;;5052147;28;20078;-41
2022/08/11 13:19:22;;;;;;;1.05;0.75;;;;;;;;;;5051067;28;20161;-41
2022/08/11 13:21:52;;;;;;;7.32;1.55;;;;;;;;;;5051946;28;20044;-43
2022/08/11 13:24:20;;;;;;;3.30;0.93;;;;;;;;;;5051616;28;20537;-46
2022/08/11 13:26:49;;;;;;;2.03;0.65;;;;;;;;;;5051778;28;20025;-43
2022/08/11 13:29:19;;;;;;;1.67;0.70;;;;;;;;;;5051639;28;20031;-41
2022/08/11 13:31:46;;;;;;;0.68;0.65;;;;;;;;;;5051477;28;20059;-53
2022/08/11 13:34:12;;;;;;;0.85;0.85;;;;;;;;;;5051175;28;20060;-45
2022/08/11 13:36:38;;;;;;;1.20;0.75;;;;;;;;;;5033824;28;20630;-45
2022/08/11 13:39:04;;;;;;;1.48;0.70;;;;;;;;;;5051303;28;20044;-47
2022/08/11 13:41:40;;;;;;;1.27;0.80;;;;;;;;;;5051548;28;20423;-40
2022/08/11 13:44:08;;;;;;;2.65;1.10;;;;;;;;;;5034498;28;20021;-46
2022/08/11 13:46:34;;;;;;;1.77;0.65;;;;;;;;;;5050711;28;20025;-41
2022/08/11 13:49:00;;;;;;;0.30;0.30;;;;;;;;;;5033151;28;20515;-44
2022/08/11 13:51:31;;;;;;;0.55;0.50;;;;;;;;;;5051106;28;20032;-46
2022/08/11 13:54:04;;;;;;;1.00;0.88;;;;;;;;;;5050984;28;20096;-39
2022/08/11 13:56:31;;;;;;;1.92;0.90;;;;;;;;;;5050970;28;20033;-40
2022/08/11 13:58:58;;;;;;;2.05;0.80;;;;;;;;;;5050941;28;20028;-40
2022/08/11 14:01:27;;;;;;;1.45;0.52;;;;;;;;;;5032882;28;20032;-40
2022/08/11 14:03:55;;;;;;;0.73;0.70;;;;;;;;;;5050608;28;20132;-42
2022/08/11 14:06:22;;;;;;;1.50;0.70;;;;;;;;;;5049505;28;20057;-40
2022/08/11 14:08:50;;;;;;;1.02;0.70;;;;;;;;;;5051076;28;20113;-51
2022/08/11 14:14:03;;;;;;;2.13;1.30;;;;;;;;;;5050479;28;20079;-45
2022/08/11 14:16:32;;;;;;;0.55;0.55;;;;;;;;;;5050686;28;20040;-47
2022/08/11 14:19:01;;;;;;;0.50;0.50;;;;;;;;;;5050804;28;20037;-51
2022/08/11 14:24:15;;;;;;;3.65;0.57;;;;;;;;;;5050293;28;20036;-53
2022/08/11 14:26:42;;;;;;;3.63;0.80;;;;;;;;;;5032270;28;20029;-45
2022/08/11 14:29:18;;;;;;;2.15;0.80;;;;;;;;;;5050077;28;20033;-50
2022/08/11 14:31:50;;;;;;;1.77;0.60;;;;;;;;;;5050518;28;20053;-49
2022/08/11 14:34:20;;;;;;;2.72;0.80;;;;;;;;;;5050397;28;20048;-50
2022/08/11 14:36:50;;;;;;;1.10;0.90;;;;;;;;;;5050575;28;20391;-47
2022/08/11 14:39:17;;;;;;;0.60;0.60;;;;;;;;;;5050639;28;20087;-49
2022/08/11 14:47:21;;;;;;;2.65;0.60;;;;;;;;;;5050680;28;20086;-52
2022/08/11 14:49:50;;;;;;;1.48;0.65;;;;;;;;;;5050461;28;20032;-53
2022/08/11 14:52:19;;;;;;;3.00;0.77;;;;;;;;;;5049566;28;20044;-50
2022/08/11 14:57:38;;;;;;;1.30;0.80;;;;;;;;;;5050054;28;20114;-44
2022/08/11 15:00:09;;;;;;;0.70;0.60;;;;;;;;;;5050101;28;20040;-47
2022/08/11 15:05:27;;;;;;;3.88;0.90;;;;;;;;;;5049232;28;20085;-43
2022/08/11 15:07:57;;;;;;;0.85;0.82;;;;;;;;;;5050043;28;20388;-51
2022/08/11 15:10:23;;;;;;;3.95;0.63;;;;;;;;;;5050079;28;20460;-50
2022/08/11 15:12:49;;;;;;;0.90;0.57;;;;;;;;;;5049963;28;20025;-53
2022/08/11 15:18:14;;;;;;;2.60;0.70;;;;;;;;;;5050078;28;20582;-49
2022/08/11 15:26:15;;;;;;;0.57;0.57;;;;;;;;;;5052908;28;20396;-49
2022/08/11 15:37:28;;;;;;;1.05;0.60;;;;;;;;;;5054304;28;20116;-44
2022/08/11 15:45:48;;;;;;;1.23;0.60;;;;;;;;;;5054030;28;20388;-44
2022/08/11 15:48:18;;;;;;;5.35;0.70;;;;;;;;;;5053369;28;20037;-43
2022/08/11 15:50:53;;;;;;;0.50;0.50;;;;;;;;;;5035731;28;20041;-42
2022/08/11 15:53:30;;;;;;;0.85;0.52;;;;;;;;;;5053241;28;20033;-50
2022/08/11 15:55:57;;;;;;;1.60;1.13;;;;;;;;;;5052258;28;20041;-40
2022/08/11 16:04:10;;;;;;;1.08;0.60;;;;;;;;;;5053326;28;20117;-42
2022/08/11 16:06:40;;;;;;;1.88;0.70;;;;;;;;;;5053523;28;20095;-39
2022/08/11 16:09:10;;;;;;;2.65;0.80;;;;;;;;;;5053309;28;20021;-40
2022/08/11 16:11:37;;;;;;;1.38;0.80;;;;;;;;;;5053179;28;20545;-41
2022/08/11 16:16:51;;;;;;;2.67;0.60;;;;;;;;;;5052001;28;20044;-41
2022/08/11 16:19:19;;;;;;;7.57;0.85;;;;;;;;;;5052793;28;20487;-41
2022/08/11 16:21:49;;;;;;;3.45;0.80;;;;;;;;;;5053169;28;20024;-40
2022/08/11 16:24:16;;;;;;;;;;;;;;;;;;5052600;28;20029;-39
2022/08/11 16:26:43;;;;;;;2.22;0.70;;;;;;;;;;5053087;28;19958;-39
2022/08/11 16:29:10;;;;;;;0.60;0.60;;;;;;;;;;5052743;28;20025;-44
2022/08/11 16:31:37;;;;;;;2.40;0.70;;;;;;;;;;5052511;28;20059;-44
2022/08/11 16:34:04;;;;;;;4.25;0.70;;;;;;;;;;5052839;28;20049;-40
2022/08/11 16:39:17;;;;;;;0.73;0.73;;;;;;;;;;5052366;28;20079;-47
2022/08/11 16:47:18;;;;;;;1.13;0.80;;;;;;;;;;5052831;28;20040;-48
2022/08/11 16:49:50;;;;;;;0.80;0.80;;;;;;;;;;5052654;28;20449;-42
2022/08/11 16:52:16;;;;;;;2.45;1.00;;;;;;;;;;5052236;28;20053;-50
2022/08/11 16:54:46;;;;;;;1.20;1.05;;;;;;;;;;5051824;28;20047;-42
2022/08/11 17:00:05;;;;;;;0.70;0.70;;;;;;;;;;5052201;28;20261;-46
2022/08/11 17:13:50;;;;;;;3.13;0.70;;;;;;;;;;5052092;28;20118;-44
2022/08/11 17:16:22;;;;;;;0.77;0.73;;;;;;;;;;5052241;28;20028;-44
2022/08/11 17:18:56;;;;;;;1.70;0.70;;;;;;;;;;5051379;28;20473;-44
2022/08/11 17:23:45;;;;;;;1.05;0.80;;;;;;;;;;5051789;28;20116;-43
2022/08/11 17:24:27;;;;;;;0.65;0.65;;;;;;;;;;5051159;28;20114;-44
2022/08/11 17:26:57;;;;;;;2.72;0.70;;;;;;;;;;5051964;28;20021;-47
2022/08/11 17:30:01;;;;;;;2.45;0.77;;;;;;;;;;5051448;28;20032;-44
2022/08/11 17:35:29;;;;;;;0.60;0.60;;;;;;;;;;5051950;28;20109;-46
2022/08/11 17:38:08;;;;;;;0.80;0.77;;;;;;;;;;5033399;28;20461;-47
2022/08/11 17:40:37;;;;;;;7.60;1.17;;;;;;;;;;5051500;28;20108;-47
2022/08/11 17:48:39;;;;;;;4.43;0.80;;;;;;;;;;5050630;28;20135;-46
2022/08/11 17:59:50;;;;;;;2.65;0.80;;;;;;;;;;5050655;28;20112;-47
2022/08/11 17:59:51;;;;;;;2.08;1.00;;;;;;;;;;5051286;28;20043;-47
2022/08/11 18:05:26;;;;;;;7.18;1.02;;;;;;;;;;5051365;28;20047;-45
